createdAt,value
2022-10-31T00:01:13.393Z,11.10
2022-10-31T00:03:40.134Z,11.20
2022-10-31T00:06:06.926Z,11.00
2022-10-31T00:08:34.121Z,11.10
2022-10-31T00:11:00.976Z,11.10
2022-10-31T00:13:27.872Z,11.10
2022-10-31T00:15:54.543Z,11.10
2022-10-31T00:18:21.198Z,11.00
2022-10-31T00:20:47.990Z,11.00
2022-10-31T00:23:14.633Z,10.90
2022-10-31T00:25:41.656Z,10.90
2022-10-31T00:28:11.862Z,10.90
2022-10-31T00:30:38.870Z,10.90
2022-10-31T00:33:06.265Z,10.80
2022-10-31T00:35:33.155Z,10.90
2022-10-31T00:38:00.549Z,11.10
2022-10-31T00:40:27.284Z,11.10
2022-10-31T00:42:54.322Z,11.30
2022-10-31T00:45:21.222Z,11.30
2022-10-31T00:47:48.181Z,11.40
2022-10-31T00:50:15.019Z,11.60
2022-10-31T00:52:41.710Z,11.70
2022-10-31T00:55:08.599Z,11.80
2022-10-31T00:57:35.248Z,11.90
2022-10-31T01:00:03.823Z,12.00
2022-10-31T01:02:30.507Z,12.10
2022-10-31T01:04:57.318Z,12.10
2022-10-31T01:07:24.010Z,12.20
2022-10-31T01:09:50.699Z,12.40
2022-10-31T01:12:17.452Z,12.40
2022-10-31T01:14:45.639Z,12.50
2022-10-31T01:17:13.628Z,12.50
2022-10-31T01:19:40.290Z,12.50
2022-10-31T01:22:07.423Z,12.50
2022-10-31T01:24:34.219Z,12.50
2022-10-31T01:27:02.522Z,12.40
2022-10-31T01:29:32.216Z,12.40
2022-10-31T01:31:59.164Z,12.40
2022-10-31T01:34:25.894Z,12.40
2022-10-31T01:36:52.968Z,12.40
2022-10-31T01:39:20.305Z,12.40
2022-10-31T01:41:50.242Z,12.40
2022-10-31T01:44:16.940Z,12.30
2022-10-31T01:46:43.830Z,12.20
2022-10-31T01:49:19.339Z,12.30
2022-10-31T01:51:54.662Z,12.30
2022-10-31T01:54:24.301Z,12.20
2022-10-31T01:56:55.797Z,12.20
2022-10-31T01:59:26.689Z,12.20
2022-10-31T02:01:54.780Z,12.20
2022-10-31T02:04:25.014Z,12.30
2022-10-31T02:07:03.324Z,12.30
2022-10-31T02:09:32.605Z,12.20
2022-10-31T02:12:03.092Z,12.00
2022-10-31T02:14:32.076Z,11.90
2022-10-31T02:16:58.935Z,11.80
2022-10-31T02:19:34.980Z,11.70
2022-10-31T02:22:26.273Z,11.70
2022-10-31T02:25:34.356Z,11.70
2022-10-31T02:28:29.251Z,11.70
2022-10-31T02:31:13.994Z,11.60
2022-10-31T02:33:58.762Z,11.50
2022-10-31T02:36:49.739Z,11.40
2022-10-31T02:39:35.153Z,11.30
2022-10-31T02:42:10.135Z,11.10
2022-10-31T02:44:46.402Z,10.90
2022-10-31T02:47:27.268Z,10.90
2022-10-31T02:50:03.634Z,10.80
2022-10-31T02:52:35.516Z,10.90
2022-10-31T02:55:31.288Z,10.90
2022-10-31T02:58:09.989Z,10.80
2022-10-31T03:00:59.078Z,10.80
2022-10-31T03:03:36.308Z,10.80
2022-10-31T03:06:17.225Z,10.70
2022-10-31T03:08:50.736Z,10.80
2022-10-31T03:11:21.151Z,10.50
2022-10-31T03:13:52.724Z,10.30
2022-10-31T03:16:26.403Z,10.20
2022-10-31T03:19:07.200Z,10.10
2022-10-31T03:21:40.727Z,10.10
2022-10-31T03:24:09.430Z,10.30
2022-10-31T03:26:41.299Z,10.40
2022-10-31T03:29:12.284Z,10.40
2022-10-31T03:32:07.339Z,10.60
2022-10-31T03:34:37.836Z,10.50
2022-10-31T03:37:07.700Z,10.50
2022-10-31T03:39:37.311Z,10.50
2022-10-31T03:42:11.136Z,10.50
2022-10-31T03:44:41.736Z,10.50
2022-10-31T03:47:09.172Z,10.50
2022-10-31T03:49:36.588Z,10.50
2022-10-31T03:52:33.579Z,10.40
2022-10-31T03:55:10.338Z,10.30
2022-10-31T03:57:42.486Z,10.30
2022-10-31T04:00:12.342Z,10.20
2022-10-31T04:02:57.022Z,10.10
2022-10-31T04:05:25.897Z,10.20
2022-10-31T04:07:58.166Z,10.10
2022-10-31T04:10:31.923Z,10.20
2022-10-31T04:13:12.547Z,10.20
2022-10-31T04:15:46.312Z,9.90
2022-10-31T04:18:13.322Z,9.80
2022-10-31T04:20:41.754Z,9.80
2022-10-31T04:23:24.182Z,9.60
2022-10-31T04:25:51.494Z,9.70
2022-10-31T04:30:51.561Z,9.70
2022-10-31T04:33:18.391Z,9.60
2022-10-31T04:35:47.262Z,9.50
2022-10-31T04:38:13.987Z,9.40
2022-10-31T04:40:41.286Z,9.30
2022-10-31T04:43:26.616Z,9.20
2022-10-31T04:45:53.576Z,9.20
2022-10-31T04:48:20.193Z,9.10
2022-10-31T04:50:46.887Z,9.20
2022-10-31T04:53:15.232Z,9.20
2022-10-31T04:56:08.082Z,9.40
2022-10-31T04:58:42.182Z,9.30
2022-10-31T05:01:10.370Z,9.50
2022-10-31T05:03:37.394Z,9.50
2022-10-31T05:06:04.182Z,9.40
2022-10-31T05:08:30.921Z,9.40
2022-10-31T05:11:04.787Z,9.40
2022-10-31T05:13:32.176Z,9.30
2022-10-31T05:16:14.038Z,9.30
2022-10-31T05:18:55.879Z,9.20
2022-10-31T05:21:48.380Z,9.20
2022-10-31T05:24:15.055Z,9.10
2022-10-31T05:26:47.101Z,9.10
2022-10-31T05:29:14.164Z,9.10
2022-10-31T05:31:40.913Z,8.90
2022-10-31T05:34:13.470Z,8.80
2022-10-31T05:37:06.799Z,8.80
2022-10-31T05:39:33.416Z,8.60
2022-10-31T05:42:04.847Z,8.70
2022-10-31T05:44:31.531Z,8.60
2022-10-31T05:47:09.335Z,8.60
2022-10-31T05:49:55.073Z,8.60
2022-10-31T05:53:06.776Z,8.50
2022-10-31T05:55:38.373Z,8.50
2022-10-31T05:58:13.814Z,8.60
2022-10-31T06:00:46.480Z,8.70
2022-10-31T06:03:13.458Z,8.60
2022-10-31T06:05:55.645Z,8.70
2022-10-31T06:08:25.762Z,8.60
2022-10-31T06:10:54.695Z,8.70
2022-10-31T06:13:30.876Z,8.70
2022-10-31T06:16:09.004Z,8.80
2022-10-31T06:18:38.066Z,8.60
2022-10-31T06:21:04.804Z,8.60
2022-10-31T06:23:31.531Z,8.60
2022-10-31T06:26:18.216Z,8.70
2022-10-31T06:28:44.893Z,8.60
2022-10-31T06:31:26.036Z,8.70
2022-10-31T06:33:52.820Z,8.70
2022-10-31T06:36:19.595Z,8.70
2022-10-31T06:38:47.286Z,8.80
2022-10-31T06:41:16.332Z,8.80
2022-10-31T06:43:48.078Z,8.80
2022-10-31T06:46:31.320Z,8.80
2022-10-31T06:49:13.888Z,8.70
2022-10-31T06:51:53.807Z,8.70
2022-10-31T06:54:20.471Z,8.60
2022-10-31T06:56:50.765Z,8.60
2022-10-31T06:59:17.511Z,8.60
2022-10-31T07:02:03.255Z,8.70
2022-10-31T07:04:30.008Z,8.70
2022-10-31T07:06:57.059Z,8.80
2022-10-31T07:09:24.144Z,8.80
2022-10-31T07:11:53.816Z,8.80
2022-10-31T07:14:20.620Z,9.00
2022-10-31T07:16:51.685Z,9.10
2022-10-31T07:19:24.002Z,9.20
2022-10-31T07:21:50.684Z,9.20
2022-10-31T07:24:17.341Z,9.40
2022-10-31T07:26:44.479Z,9.40
2022-10-31T07:29:11.237Z,9.40
2022-10-31T07:31:38.876Z,9.50
2022-10-31T07:34:12.511Z,9.50
2022-10-31T07:37:11.541Z,9.60
2022-10-31T07:39:38.297Z,9.60
2022-10-31T07:42:07.109Z,9.70
2022-10-31T07:44:34.918Z,9.80
2022-10-31T07:47:30.192Z,9.90
2022-10-31T07:50:02.703Z,10.00
2022-10-31T07:52:48.498Z,10.20
2022-10-31T07:55:34.131Z,10.40
2022-10-31T07:58:03.476Z,10.40
2022-10-31T08:00:31.931Z,10.50
2022-10-31T08:03:04.388Z,10.70
2022-10-31T08:05:49.875Z,10.80
2022-10-31T08:08:45.926Z,10.90
2022-10-31T08:11:12.766Z,11.10
2022-10-31T08:13:39.523Z,11.30
2022-10-31T08:16:08.275Z,11.30
2022-10-31T08:18:38.693Z,11.40
2022-10-31T08:21:12.801Z,11.60
2022-10-31T08:23:39.491Z,11.80
2022-10-31T08:26:07.820Z,11.90
2022-10-31T08:28:34.471Z,12.00
2022-10-31T08:31:01.335Z,12.20
2022-10-31T08:33:48.376Z,12.30
2022-10-31T08:36:53.179Z,12.50
2022-10-31T08:39:29.025Z,12.70
2022-10-31T08:41:55.894Z,13.00
2022-10-31T08:44:22.898Z,13.30
2022-10-31T08:46:49.504Z,13.50
2022-10-31T08:49:16.187Z,13.90
2022-10-31T08:51:43.952Z,14.10
2022-10-31T08:54:10.611Z,14.30
2022-10-31T08:56:57.363Z,14.50
2022-10-31T08:59:41.358Z,14.80
2022-10-31T09:02:21.430Z,15.00
2022-10-31T09:04:50.586Z,15.00
2022-10-31T09:07:21.632Z,15.20
2022-10-31T09:09:48.638Z,15.60
2022-10-31T09:12:15.411Z,15.90
2022-10-31T09:15:01.609Z,16.10
2022-10-31T09:17:34.318Z,16.20
2022-10-31T09:20:20.056Z,16.20
2022-10-31T09:22:46.781Z,16.40
2022-10-31T09:25:13.840Z,16.40
2022-10-31T09:27:44.656Z,16.50
2022-10-31T09:30:12.052Z,16.60
2022-10-31T09:32:39.643Z,16.60
2022-10-31T09:35:06.930Z,16.70
2022-10-31T09:37:33.561Z,16.70
2022-10-31T09:40:00.727Z,16.70
2022-10-31T09:42:58.728Z,16.50
2022-10-31T09:45:58.567Z,16.70
2022-10-31T09:48:44.171Z,16.70
2022-10-31T09:51:34.076Z,16.60
2022-10-31T09:54:41.563Z,16.50
2022-10-31T09:57:14.517Z,16.60
2022-10-31T09:59:45.332Z,16.60
2022-10-31T10:02:40.574Z,16.60
2022-10-31T10:05:14.173Z,16.60
2022-10-31T10:08:13.650Z,16.80
2022-10-31T10:11:28.131Z,17.10
2022-10-31T10:14:13.785Z,17.00
2022-10-31T10:17:00.641Z,17.00
2022-10-31T10:19:42.340Z,17.10
2022-10-31T10:22:26.570Z,17.20
2022-10-31T10:25:11.765Z,17.10
2022-10-31T10:27:50.428Z,17.10
2022-10-31T10:30:30.971Z,17.00
2022-10-31T10:33:00.989Z,17.00
2022-10-31T10:35:35.790Z,16.90
2022-10-31T10:38:31.024Z,17.00
2022-10-31T10:41:00.352Z,17.00
2022-10-31T10:43:39.889Z,17.00
2022-10-31T10:46:28.184Z,16.90
2022-10-31T10:49:15.123Z,16.90
2022-10-31T10:52:13.127Z,16.80
2022-10-31T10:54:43.299Z,16.60
2022-10-31T10:57:19.745Z,16.70
2022-10-31T10:59:47.281Z,16.90
2022-10-31T11:02:23.419Z,17.20
2022-10-31T11:04:56.184Z,17.20
2022-10-31T11:07:23.527Z,17.20
2022-10-31T11:09:50.249Z,17.10
2022-10-31T11:12:25.231Z,17.00
2022-10-31T11:14:51.811Z,16.90
2022-10-31T11:17:37.863Z,16.80
2022-10-31T11:20:33.084Z,16.80
2022-10-31T11:23:24.797Z,17.00
2022-10-31T11:26:03.376Z,17.10
2022-10-31T11:28:33.053Z,17.30
2022-10-31T11:31:01.612Z,17.40
2022-10-31T11:33:41.470Z,17.60
2022-10-31T11:36:26.648Z,17.70
2022-10-31T11:38:54.250Z,17.70
2022-10-31T11:41:30.572Z,17.80
2022-10-31T11:44:05.778Z,17.90
2022-10-31T11:46:53.739Z,17.90
2022-10-31T11:49:41.843Z,17.80
2022-10-31T11:52:17.275Z,17.60
2022-10-31T11:54:53.166Z,17.50
2022-10-31T11:57:48.265Z,17.50
2022-10-31T12:00:31.194Z,17.40
2022-10-31T12:03:22.535Z,17.40
2022-10-31T12:06:14.153Z,17.40
2022-10-31T12:08:42.596Z,17.40
2022-10-31T12:11:21.007Z,17.40
2022-10-31T12:14:04.702Z,17.40
2022-10-31T12:16:34.208Z,17.40
2022-10-31T12:19:07.072Z,17.40
2022-10-31T12:21:51.826Z,17.40
2022-10-31T12:24:41.824Z,17.50
2022-10-31T12:27:43.406Z,17.60
2022-10-31T12:30:24.760Z,17.60
2022-10-31T12:32:54.054Z,17.50
2022-10-31T12:36:10.949Z,17.50
2022-10-31T12:39:10.016Z,17.50
2022-10-31T12:41:52.108Z,17.50
2022-10-31T12:44:48.901Z,17.60
2022-10-31T12:47:47.180Z,17.50
2022-10-31T12:50:45.725Z,17.40
2022-10-31T12:53:30.779Z,17.30
2022-10-31T12:56:19.455Z,17.40
2022-10-31T12:59:04.587Z,17.20
2022-10-31T13:01:49.277Z,17.20
2022-10-31T13:04:30.912Z,17.20
2022-10-31T13:07:02.959Z,17.20
2022-10-31T13:09:50.035Z,17.30
2022-10-31T13:12:20.463Z,17.30
2022-10-31T13:14:54.166Z,17.30
2022-10-31T13:17:30.739Z,17.20
2022-10-31T13:20:17.455Z,17.30
2022-10-31T13:22:48.436Z,17.30
2022-10-31T13:25:26.246Z,17.40
2022-10-31T13:27:55.936Z,17.40
2022-10-31T13:30:25.418Z,17.40
2022-10-31T13:33:22.274Z,17.40
2022-10-31T13:36:16.881Z,17.40
2022-10-31T13:38:50.983Z,17.40
2022-10-31T13:41:44.499Z,17.50
2022-10-31T13:44:26.643Z,17.50
2022-10-31T13:46:55.019Z,17.50
2022-10-31T13:49:29.514Z,17.50
2022-10-31T13:52:11.437Z,17.60
2022-10-31T13:54:52.499Z,17.60
2022-10-31T13:57:34.468Z,17.50
2022-10-31T14:00:26.475Z,17.50
2022-10-31T14:02:56.508Z,17.50
2022-10-31T14:05:28.258Z,17.50
2022-10-31T14:07:56.834Z,17.60
2022-10-31T14:10:47.802Z,17.60
2022-10-31T14:13:43.758Z,17.50
2022-10-31T14:16:27.155Z,17.50
2022-10-31T14:19:06.008Z,17.30
2022-10-31T14:21:42.783Z,17.20
2022-10-31T14:24:24.551Z,17.30
2022-10-31T14:27:00.273Z,17.40
2022-10-31T14:29:32.314Z,17.30
2022-10-31T14:32:15.368Z,17.20
2022-10-31T14:34:51.211Z,17.30
2022-10-31T14:37:33.153Z,17.20
2022-10-31T14:40:27.391Z,17.20
2022-10-31T14:43:12.812Z,17.00
2022-10-31T14:46:09.404Z,17.00
2022-10-31T14:48:39.018Z,17.00
2022-10-31T14:51:15.931Z,17.00
2022-10-31T14:53:52.674Z,17.00
2022-10-31T14:56:31.330Z,16.90
2022-10-31T14:59:03.909Z,17.00
2022-10-31T15:01:39.624Z,17.00
2022-10-31T15:04:23.494Z,17.00
2022-10-31T15:07:36.512Z,17.00
2022-10-31T15:10:07.633Z,17.00
2022-10-31T15:12:39.688Z,16.90
2022-10-31T15:15:25.071Z,16.90
2022-10-31T15:18:01.925Z,16.90
2022-10-31T15:20:34.749Z,16.90
2022-10-31T15:23:01.665Z,16.90
2022-10-31T15:25:35.644Z,16.70
2022-10-31T15:28:02.729Z,16.70
2022-10-31T15:30:30.418Z,16.60
2022-10-31T15:32:59.157Z,16.60
2022-10-31T15:35:31.273Z,16.60
2022-10-31T15:37:59.840Z,16.50
2022-10-31T15:40:27.973Z,16.60
2022-10-31T15:43:02.231Z,16.50
2022-10-31T15:45:31.052Z,16.50
2022-10-31T15:48:04.150Z,16.50
2022-10-31T15:50:33.361Z,16.40
2022-10-31T15:53:01.240Z,16.50
2022-10-31T15:55:30.599Z,16.50
2022-10-31T15:58:00.547Z,16.40
2022-10-31T16:00:31.701Z,16.50
2022-10-31T16:03:22.512Z,16.50
2022-10-31T16:05:53.143Z,16.50
2022-10-31T16:08:27.633Z,16.50
2022-10-31T16:10:55.324Z,16.50
2022-10-31T16:13:31.728Z,16.50
2022-10-31T16:16:32.991Z,16.40
2022-10-31T16:18:49.465Z,16.40
2022-10-31T16:21:16.426Z,16.40
2022-10-31T16:23:52.784Z,16.30
2022-10-31T16:26:21.447Z,16.20
2022-10-31T16:29:04.634Z,16.20
2022-10-31T16:31:39.423Z,16.30
2022-10-31T16:34:25.994Z,16.20
2022-10-31T16:36:53.389Z,16.20
2022-10-31T16:39:20.638Z,16.20
2022-10-31T16:41:50.268Z,16.20
2022-10-31T16:44:24.254Z,16.20
2022-10-31T16:47:13.839Z,16.20
2022-10-31T16:49:40.639Z,16.20
2022-10-31T16:52:07.316Z,16.20
2022-10-31T16:54:33.946Z,16.20
2022-10-31T16:57:01.506Z,16.10
2022-10-31T16:59:28.552Z,16.10
2022-10-31T17:01:56.156Z,16.10
2022-10-31T17:04:23.086Z,16.00
2022-10-31T17:06:49.768Z,16.00
2022-10-31T17:09:16.423Z,16.00
2022-10-31T17:11:49.566Z,16.00
2022-10-31T17:14:17.661Z,15.90
2022-10-31T17:16:44.335Z,16.00
2022-10-31T17:19:11.814Z,16.00
2022-10-31T17:21:39.242Z,16.00
2022-10-31T17:24:06.606Z,15.90
2022-10-31T17:26:33.483Z,15.90
2022-10-31T17:29:01.810Z,15.90
2022-10-31T17:31:30.528Z,15.90
2022-10-31T17:34:02.369Z,15.90
2022-10-31T17:36:31.407Z,15.80
2022-10-31T17:38:58.080Z,15.90
2022-10-31T17:41:24.779Z,15.80
2022-10-31T17:43:58.558Z,15.80
2022-10-31T17:46:25.515Z,15.80
2022-10-31T17:48:52.164Z,15.80
2022-10-31T17:51:18.813Z,15.70
2022-10-31T17:53:45.471Z,15.70
2022-10-31T17:56:12.203Z,15.70
2022-10-31T17:58:38.921Z,15.70
2022-10-31T18:01:14.249Z,15.60
2022-10-31T18:03:41.532Z,15.60
2022-10-31T18:06:10.574Z,15.60
2022-10-31T18:08:39.743Z,15.50
2022-10-31T18:11:11.335Z,15.40
2022-10-31T18:13:38.589Z,15.40
2022-10-31T18:16:12.951Z,15.40
2022-10-31T18:18:40.248Z,15.40
2022-10-31T18:21:06.923Z,15.30
2022-10-31T18:23:33.881Z,15.40
2022-10-31T18:26:00.487Z,15.30
2022-10-31T18:28:27.158Z,15.40
2022-10-31T18:30:53.819Z,15.40
2022-10-31T18:33:20.559Z,15.40
2022-10-31T18:35:47.220Z,15.40
2022-10-31T18:38:13.859Z,15.40
2022-10-31T18:40:40.501Z,15.40
2022-10-31T18:43:07.226Z,15.40
2022-10-31T18:45:46.622Z,15.50
2022-10-31T18:48:15.166Z,15.50
2022-10-31T18:50:42.117Z,15.50
2022-10-31T18:53:09.093Z,15.50
2022-10-31T18:55:43.968Z,15.50
2022-10-31T18:58:14.169Z,15.40
2022-10-31T19:00:41.090Z,15.50
2022-10-31T19:03:07.753Z,15.50
2022-10-31T19:05:34.503Z,15.50
2022-10-31T19:08:01.215Z,15.50
2022-10-31T19:10:27.871Z,15.40
2022-10-31T19:12:54.543Z,15.40
2022-10-31T19:15:21.192Z,15.40
2022-10-31T19:17:47.921Z,15.40
2022-10-31T19:20:14.698Z,15.40
2022-10-31T19:25:31.228Z,15.40
2022-10-31T19:27:58.584Z,15.30
2022-10-31T19:30:25.481Z,15.30
2022-10-31T19:32:55.875Z,15.30
2022-10-31T19:35:22.552Z,15.30
2022-10-31T19:37:49.288Z,15.30
2022-10-31T19:40:16.112Z,15.30
2022-10-31T19:42:42.879Z,15.10
2022-10-31T19:45:10.713Z,15.10
2022-10-31T19:47:37.441Z,15.10
2022-10-31T19:50:04.910Z,15.10
2022-10-31T19:52:35.722Z,15.00
2022-10-31T19:55:05.380Z,15.10
2022-10-31T19:58:01.507Z,15.00
2022-10-31T20:00:21.143Z,14.90
2022-10-31T20:02:47.888Z,14.70
2022-10-31T20:05:14.586Z,14.60
2022-10-31T20:07:41.336Z,14.50
2022-10-31T20:10:08.730Z,14.50
2022-10-31T20:12:35.881Z,14.40
2022-10-31T20:15:02.652Z,14.40
2022-10-31T20:17:29.371Z,14.30
2022-10-31T20:19:56.339Z,14.30
2022-10-31T20:22:23.751Z,14.20
2022-10-31T20:24:50.763Z,14.20
2022-10-31T20:27:17.778Z,14.10
2022-10-31T20:29:44.436Z,14.10
2022-10-31T20:32:13.310Z,14.20
2022-10-31T20:34:40.141Z,14.10
2022-10-31T20:37:06.957Z,14.10
2022-10-31T20:39:36.511Z,14.10
2022-10-31T20:42:04.510Z,14.10
2022-10-31T20:44:31.621Z,14.00
2022-10-31T20:46:59.270Z,13.90
2022-10-31T20:49:25.990Z,14.00
2022-10-31T20:51:52.710Z,13.90
2022-10-31T20:54:19.958Z,13.90
2022-10-31T20:56:46.818Z,13.80
2022-10-31T20:59:15.039Z,13.90
2022-10-31T21:01:41.820Z,13.90
2022-10-31T21:04:08.690Z,13.90
2022-10-31T21:06:35.413Z,13.80
2022-10-31T21:09:02.701Z,13.80
2022-10-31T21:11:29.563Z,13.80
2022-10-31T21:13:56.583Z,13.80
2022-10-31T21:16:26.118Z,13.80
2022-10-31T21:18:53.560Z,13.80
2022-10-31T21:21:30.670Z,13.80
2022-10-31T21:24:02.622Z,13.90
2022-10-31T21:26:36.993Z,13.90
2022-10-31T21:29:05.327Z,13.80
2022-10-31T21:31:33.080Z,13.80
2022-10-31T21:34:00.229Z,13.80
2022-10-31T21:36:30.208Z,13.80
2022-10-31T21:38:57.120Z,13.70
2022-10-31T21:41:25.631Z,13.60
2022-10-31T21:43:56.226Z,13.60
2022-10-31T21:46:26.423Z,13.50
2022-10-31T21:48:54.142Z,13.50
2022-10-31T21:51:23.176Z,13.50
2022-10-31T21:54:09.287Z,13.50
2022-10-31T21:56:36.790Z,13.50
2022-10-31T21:59:05.150Z,13.50
2022-10-31T22:01:32.799Z,13.50
2022-10-31T22:04:00.085Z,13.50
2022-10-31T22:06:27.892Z,13.60
2022-10-31T22:08:54.758Z,13.50
2022-10-31T22:11:21.651Z,13.50
2022-10-31T22:13:49.940Z,13.50
2022-10-31T22:16:20.030Z,13.50
2022-10-31T22:18:47.391Z,13.50
2022-10-31T22:21:17.049Z,13.50
2022-10-31T22:23:44.888Z,13.60
2022-10-31T22:26:19.076Z,13.60
2022-10-31T22:28:48.601Z,13.60
2022-10-31T22:31:18.959Z,13.60
2022-10-31T22:33:46.574Z,13.70
2022-10-31T22:36:19.611Z,13.70
2022-10-31T22:38:47.357Z,13.60
2022-10-31T22:41:21.689Z,13.60
2022-10-31T22:43:48.840Z,13.60
2022-10-31T22:46:19.924Z,13.70
2022-10-31T22:48:50.014Z,13.70
2022-10-31T22:51:23.919Z,13.70
2022-10-31T22:53:51.261Z,13.80
2022-10-31T22:56:21.174Z,13.80
2022-10-31T22:58:48.590Z,13.80
2022-10-31T23:01:30.178Z,13.80
2022-10-31T23:03:57.177Z,13.80
2022-10-31T23:06:26.422Z,13.80
2022-10-31T23:08:53.924Z,13.80
2022-10-31T23:11:35.279Z,13.80
2022-10-31T23:14:16.120Z,13.80
2022-10-31T23:16:50.543Z,13.70
2022-10-31T23:19:26.297Z,13.70
2022-10-31T23:22:01.776Z,13.80
2022-10-31T23:24:37.562Z,13.80
2022-10-31T23:27:18.693Z,13.70
2022-10-31T23:29:57.008Z,13.80
2022-10-31T23:32:35.326Z,13.70
2022-10-31T23:35:05.443Z,13.70
2022-10-31T23:37:33.969Z,13.70
2022-10-31T23:40:01.715Z,13.70
2022-10-31T23:42:29.427Z,13.70
2022-10-31T23:44:56.341Z,13.80
2022-10-31T23:47:23.547Z,13.80
2022-10-31T23:49:53.583Z,13.80
2022-10-31T23:52:20.201Z,13.70
2022-10-31T23:54:47.287Z,13.60
2022-10-31T23:57:15.998Z,13.60
2022-10-31T23:59:42.910Z,13.60
